createdAt,value
2023-05-10T00:02:17.202Z,95416.31
2023-05-10T00:04:50.315Z,95414.59
2023-05-10T00:07:37.410Z,95409.53
2023-05-10T00:10:11.314Z,95415.38
2023-05-10T00:12:58.229Z,95412.81
2023-05-10T00:15:35.662Z,95413.69
2023-05-10T00:18:22.209Z,95412.78
2023-05-10T00:20:55.294Z,95405.16
2023-05-10T00:23:42.221Z,95406.88
2023-05-10T00:26:15.963Z,95410.16
2023-05-10T00:29:03.206Z,95401.69
2023-05-10T00:31:36.360Z,95404.22
2023-05-10T00:34:23.193Z,95400.84
2023-05-10T00:36:57.205Z,95398.25
2023-05-10T00:39:44.160Z,95396.53
2023-05-10T00:42:24.371Z,95399.03
2023-05-10T00:45:04.214Z,95399.03
2023-05-10T00:47:44.349Z,95390.53
2023-05-10T00:50:24.224Z,95395.63
2023-05-10T00:53:06.298Z,95398.97
2023-05-10T00:55:46.209Z,95398.06
2023-05-10T00:58:35.243Z,95398.91
2023-05-10T01:01:09.221Z,95399.72
2023-05-10T01:03:56.229Z,95398.84
2023-05-10T01:06:29.801Z,95395.41
2023-05-10T01:09:16.220Z,95405.50
2023-05-10T01:11:50.314Z,95390.28
2023-05-10T01:14:37.343Z,95406.31
2023-05-10T01:17:13.209Z,95399.50
2023-05-10T01:20:00.231Z,95400.28
2023-05-10T01:23:13.279Z,95401.06
2023-05-10T01:26:39.230Z,95396.81
2023-05-10T01:29:28.231Z,95398.44
2023-05-10T01:32:29.261Z,95400.09
2023-05-10T01:35:45.230Z,95390.75
2023-05-10T01:38:55.228Z,95391.63
2023-05-10T01:42:11.240Z,95385.69
2023-05-10T01:45:15.222Z,95389.09
2023-05-10T01:48:09.373Z,95382.31
2023-05-10T01:50:58.250Z,95386.53
2023-05-10T01:53:38.216Z,95384.84
2023-05-10T01:56:31.225Z,95373.88
2023-05-10T01:59:06.332Z,95376.41
2023-05-10T02:01:55.245Z,95376.41
2023-05-10T02:04:38.248Z,95371.28
2023-05-10T02:07:26.303Z,95367.88
2023-05-10T02:10:07.249Z,95374.63
2023-05-10T02:12:56.316Z,95370.34
2023-05-10T02:15:39.261Z,95367.84
2023-05-10T02:18:33.227Z,95368.66
2023-05-10T02:21:29.246Z,95370.38
2023-05-10T02:24:24.226Z,95370.31
2023-05-10T02:27:12.260Z,95367.75
2023-05-10T02:29:46.396Z,95369.38
2023-05-10T02:32:35.272Z,95369.34
2023-05-10T02:35:17.255Z,95368.47
2023-05-10T02:38:12.237Z,95365.06
2023-05-10T02:41:00.255Z,95367.56
2023-05-10T02:43:35.414Z,95364.97
2023-05-10T02:46:22.303Z,95367.47
2023-05-10T02:48:55.354Z,95369.91
2023-05-10T02:51:45.248Z,95366.50
2023-05-10T02:54:23.402Z,95367.34
2023-05-10T02:57:13.293Z,95370.72
2023-05-10T02:59:46.453Z,95363.97
2023-05-10T03:02:33.501Z,95368.19
2023-05-10T03:05:10.423Z,95370.72
2023-05-10T03:07:58.268Z,95369.00
2023-05-10T03:10:38.355Z,95370.66
2023-05-10T03:13:40.310Z,95370.59
2023-05-10T03:16:17.786Z,95370.59
2023-05-10T03:19:16.275Z,95365.50
2023-05-10T03:21:55.435Z,95363.78
2023-05-10T03:24:44.263Z,95364.59
2023-05-10T03:27:18.361Z,95360.38
2023-05-10T03:30:05.280Z,95358.72
2023-05-10T03:32:38.577Z,95352.75
2023-05-10T03:35:25.286Z,95362.88
2023-05-10T03:37:58.366Z,95353.66
2023-05-10T03:40:45.272Z,95357.78
2023-05-10T03:43:18.385Z,95352.72
2023-05-10T03:46:05.300Z,95353.59
2023-05-10T03:48:40.374Z,95352.72
2023-05-10T03:51:27.283Z,95351.94
2023-05-10T03:54:07.290Z,95349.47
2023-05-10T03:56:55.282Z,95363.00
2023-05-10T03:59:35.279Z,95352.06
2023-05-10T04:02:29.410Z,95358.78
2023-05-10T04:05:16.295Z,95354.69
2023-05-10T04:07:57.307Z,95358.13
2023-05-10T04:10:51.299Z,95358.16
2023-05-10T04:13:38.311Z,95362.44
2023-05-10T04:16:14.427Z,95356.59
2023-05-10T04:19:01.297Z,95361.72
2023-05-10T04:21:34.383Z,95363.41
2023-05-10T04:24:21.292Z,95354.13
2023-05-10T04:26:55.907Z,95364.31
2023-05-10T04:29:44.305Z,95367.81
2023-05-10T04:32:24.314Z,95361.16
2023-05-10T04:35:18.301Z,95368.91
2023-05-10T04:38:05.326Z,95356.53
2023-05-10T04:40:38.414Z,95361.88
2023-05-10T04:43:25.309Z,95357.06
2023-05-10T04:46:05.356Z,95358.13
2023-05-10T04:48:52.283Z,95360.88
2023-05-10T04:51:25.479Z,95353.47
2023-05-10T04:54:12.300Z,95355.34
2023-05-10T04:56:45.447Z,95347.88
2023-05-10T04:59:32.417Z,95342.91
2023-05-10T05:02:05.825Z,95347.28
2023-05-10T05:04:52.440Z,95345.63
2023-05-10T05:07:25.450Z,95339.72
2023-05-10T05:10:16.502Z,95338.88
2023-05-10T05:12:50.630Z,95343.06
2023-05-10T05:15:38.302Z,95340.47
2023-05-10T05:18:11.482Z,95331.91
2023-05-10T05:20:58.303Z,95331.78
2023-05-10T05:23:31.445Z,95332.47
2023-05-10T05:26:18.311Z,95335.72
2023-05-10T05:29:02.395Z,95337.22
2023-05-10T05:31:49.379Z,95328.41
2023-05-10T05:34:23.142Z,95329.84
2023-05-10T05:37:10.370Z,95332.19
2023-05-10T05:39:43.520Z,95327.69
2023-05-10T05:42:30.345Z,95339.22
2023-05-10T05:45:03.478Z,95334.66
2023-05-10T05:47:50.349Z,95334.31
2023-05-10T05:50:33.331Z,95335.69
2023-05-10T05:53:20.319Z,95331.81
2023-05-10T05:56:04.710Z,95322.91
2023-05-10T05:58:52.325Z,95325.00
2023-05-10T06:01:25.458Z,95326.22
2023-05-10T06:04:12.452Z,95330.88
2023-05-10T06:06:45.449Z,95325.31
2023-05-10T06:09:32.349Z,95334.28
2023-05-10T06:12:06.099Z,95333.75
2023-05-10T06:14:52.356Z,95334.34
2023-05-10T06:17:26.244Z,95327.94
2023-05-10T06:20:06.328Z,95335.97
2023-05-10T06:22:46.603Z,95328.59
2023-05-10T06:25:27.340Z,95330.69
2023-05-10T06:28:07.363Z,95333.25
2023-05-10T06:30:41.599Z,95328.69
2023-05-10T06:33:28.341Z,95338.97
2023-05-10T06:36:01.506Z,95338.47
2023-05-10T06:38:48.356Z,95341.41
2023-05-10T06:41:23.966Z,95334.09
2023-05-10T06:44:11.338Z,95325.88
2023-05-10T06:46:51.416Z,95337.91
2023-05-10T06:49:38.358Z,95337.66
2023-05-10T06:52:11.460Z,95335.41
2023-05-10T06:54:58.365Z,95333.25
2023-05-10T06:57:38.350Z,95329.00
2023-05-10T07:00:33.420Z,95330.16
2023-05-10T07:03:27.364Z,95326.50
2023-05-10T07:06:32.296Z,95342.34
2023-05-10T07:09:21.368Z,95333.75
2023-05-10T07:12:01.363Z,95327.56
2023-05-10T07:14:55.372Z,95333.16
2023-05-10T07:17:49.501Z,95336.00
2023-05-10T07:20:36.396Z,95334.47
2023-05-10T07:23:09.499Z,95343.78
2023-05-10T07:25:59.385Z,95334.06
2023-05-10T07:28:32.512Z,95341.94
2023-05-10T07:31:19.384Z,95344.41
2023-05-10T07:33:52.549Z,95346.13
2023-05-10T07:36:40.406Z,95341.44
2023-05-10T07:39:18.639Z,95346.25
2023-05-10T07:42:11.385Z,95340.19
2023-05-10T07:44:44.515Z,95332.84
2023-05-10T07:47:31.465Z,95338.81
2023-05-10T07:50:04.882Z,95339.22
2023-05-10T07:52:51.396Z,95332.19
2023-05-10T07:55:27.188Z,95332.63
2023-05-10T07:58:14.417Z,95328.53
2023-05-10T08:00:47.613Z,95332.25
2023-05-10T08:03:34.415Z,95332.25
2023-05-10T08:06:07.507Z,95324.44
2023-05-10T08:08:57.391Z,95330.13
2023-05-10T08:11:37.409Z,95328.72
2023-05-10T08:14:24.397Z,95317.72
2023-05-10T08:16:57.549Z,95318.91
2023-05-10T08:19:44.392Z,95319.91
2023-05-10T08:22:24.402Z,95315.47
2023-05-10T08:25:18.584Z,95312.50
2023-05-10T08:28:05.412Z,95321.22
2023-05-10T08:30:45.383Z,95315.59
2023-05-10T08:33:39.651Z,95326.28
2023-05-10T08:36:29.389Z,95312.59
2023-05-10T08:39:16.192Z,95319.75
2023-05-10T08:42:16.415Z,95317.06
2023-05-10T08:45:12.424Z,95317.09
2023-05-10T08:48:06.456Z,95325.56
2023-05-10T08:50:55.429Z,95320.34
2023-05-10T08:53:30.526Z,95330.03
2023-05-10T08:56:17.432Z,95333.44
2023-05-10T08:58:50.797Z,95335.66
2023-05-10T09:01:39.417Z,95320.13
2023-05-10T09:04:13.232Z,95323.25
2023-05-10T09:07:00.442Z,95331.56
2023-05-10T09:09:34.534Z,95324.22
2023-05-10T09:12:23.430Z,95332.28
2023-05-10T09:15:05.463Z,95316.31
2023-05-10T09:18:00.574Z,95311.69
2023-05-10T09:20:47.433Z,95320.00
2023-05-10T09:23:27.466Z,95318.25
2023-05-10T09:26:15.443Z,95326.72
2023-05-10T09:29:06.424Z,95308.06
2023-05-10T09:31:58.465Z,95315.31
2023-05-10T09:34:42.211Z,95304.66
2023-05-10T09:37:37.458Z,95312.72
2023-05-10T09:40:14.561Z,95306.75
2023-05-10T09:43:04.501Z,95323.94
2023-05-10T09:45:41.554Z,95318.28
2023-05-10T09:48:31.458Z,95319.50
2023-05-10T09:51:12.488Z,95323.09
2023-05-10T09:54:31.485Z,95319.88
2023-05-10T09:57:35.250Z,95315.56
2023-05-10T10:00:33.471Z,95306.03
2023-05-10T10:03:25.495Z,95301.75
2023-05-10T10:05:58.522Z,95310.75
2023-05-10T10:08:45.488Z,95318.66
2023-05-10T10:11:18.603Z,95297.63
2023-05-10T10:14:05.494Z,95301.09
2023-05-10T10:16:45.961Z,95298.75
2023-05-10T10:19:43.481Z,95288.97
2023-05-10T10:22:16.664Z,95277.81
2023-05-10T10:25:03.500Z,95287.97
2023-05-10T10:27:56.617Z,95279.53
2023-05-10T10:30:50.487Z,95278.72
2023-05-10T10:33:38.758Z,95277.72
2023-05-10T10:36:26.504Z,95274.78
2023-05-10T10:39:02.438Z,95273.38
2023-05-10T10:42:04.510Z,95263.94
2023-05-10T10:44:38.021Z,95272.06
2023-05-10T10:47:31.506Z,95276.44
2023-05-10T10:50:07.958Z,95269.84
2023-05-10T10:52:56.518Z,95261.78
2023-05-10T10:55:30.941Z,95260.22
2023-05-10T10:58:17.502Z,95257.03
2023-05-10T11:00:50.677Z,95261.88
2023-05-10T11:03:37.502Z,95262.84
2023-05-10T11:06:10.625Z,95261.88
2023-05-10T11:09:00.516Z,95257.09
2023-05-10T11:11:33.664Z,95244.84
2023-05-10T11:14:20.572Z,95258.69
2023-05-10T11:17:00.618Z,95253.47
2023-05-10T11:20:36.522Z,95251.53
2023-05-10T11:23:30.529Z,95252.66
2023-05-10T11:26:24.492Z,95255.00
2023-05-10T11:29:12.578Z,95244.19
2023-05-10T11:31:57.513Z,95256.75
2023-05-10T11:34:44.522Z,95247.69
2023-05-10T11:37:24.527Z,95248.28
2023-05-10T11:40:18.861Z,95243.06
2023-05-10T11:43:05.588Z,95242.38
2023-05-10T11:45:49.637Z,95241.00
2023-05-10T11:48:37.537Z,95242.53
2023-05-10T11:51:11.053Z,95226.38
2023-05-10T11:54:00.627Z,95224.38
2023-05-10T11:56:33.660Z,95234.97
2023-05-10T11:59:22.551Z,95232.66
2023-05-10T12:01:55.872Z,95224.88
2023-05-10T12:04:42.599Z,95228.81
2023-05-10T12:07:16.740Z,95236.25
2023-05-10T12:10:22.541Z,95220.47
2023-05-10T12:12:55.696Z,95219.75
2023-05-10T12:15:42.550Z,95222.38
2023-05-10T12:18:17.763Z,95221.53
2023-05-10T12:21:11.581Z,95230.44
2023-05-10T12:24:00.571Z,95217.97
2023-05-10T12:29:58.565Z,95222.47
2023-05-10T12:32:58.636Z,95212.75
2023-05-10T12:36:01.565Z,95201.75
2023-05-10T12:38:57.580Z,95206.75
2023-05-10T12:41:45.564Z,95212.41
2023-05-10T12:44:25.548Z,95205.06
2023-05-10T12:47:13.567Z,95200.59
2023-05-10T12:49:53.551Z,95207.88
2023-05-10T12:52:40.622Z,95200.13
2023-05-10T12:55:14.673Z,95196.47
2023-05-10T12:58:01.626Z,95196.56
2023-05-10T13:00:34.691Z,95194.19
2023-05-10T13:03:23.576Z,95197.69
2023-05-10T13:06:03.595Z,95196.97
2023-05-10T13:08:57.654Z,95186.00
2023-05-10T13:11:51.598Z,95180.84
2023-05-10T13:14:45.576Z,95174.81
2023-05-10T13:17:34.293Z,95165.31
2023-05-10T13:20:17.279Z,95166.22
2023-05-10T13:23:11.590Z,95169.00
2023-05-10T13:26:05.613Z,95167.59
2023-05-10T13:28:53.619Z,95167.09
2023-05-10T13:31:26.820Z,95155.44
2023-05-10T13:34:13.631Z,95160.69
2023-05-10T13:36:53.613Z,95154.38
2023-05-10T13:39:47.620Z,95156.13
2023-05-10T13:42:34.615Z,95158.72
2023-05-10T13:45:08.824Z,95153.88
2023-05-10T13:47:55.663Z,95152.34
2023-05-10T13:50:28.890Z,95141.56
2023-05-10T13:53:15.629Z,95152.81
2023-05-10T13:55:48.796Z,95143.13
2023-05-10T13:58:35.571Z,95135.59
2023-05-10T14:01:08.776Z,95134.41
2023-05-10T14:03:55.709Z,95124.81
2023-05-10T14:06:28.722Z,95134.03
2023-05-10T14:09:15.620Z,95128.44
2023-05-10T14:11:49.013Z,95137.94
2023-05-10T14:14:36.663Z,95127.84
2023-05-10T14:17:12.115Z,95125.41
2023-05-10T14:20:00.628Z,95126.19
2023-05-10T14:22:33.821Z,95127.75
2023-05-10T14:25:27.649Z,95131.94
2023-05-10T14:28:21.744Z,95122.50
2023-05-10T14:31:08.636Z,95132.91
2023-05-10T14:33:48.643Z,95130.34
2023-05-10T14:36:42.641Z,95128.69
2023-05-10T14:39:30.664Z,95128.44
2023-05-10T14:42:04.962Z,95133.81
2023-05-10T14:44:51.635Z,95131.47
2023-05-10T14:47:24.946Z,95130.75
2023-05-10T14:50:14.789Z,95124.75
2023-05-10T14:52:54.762Z,95127.44
2023-05-10T14:55:42.652Z,95129.25
2023-05-10T14:58:15.818Z,95125.97
2023-05-10T15:01:02.715Z,95133.91
2023-05-10T15:03:42.697Z,95134.84
2023-05-10T15:06:38.627Z,95127.22
2023-05-10T15:09:18.652Z,95141.28
2023-05-10T15:12:12.628Z,95127.56
2023-05-10T15:14:59.655Z,95134.44
2023-05-10T15:17:32.818Z,95140.31
2023-05-10T15:20:19.634Z,95136.06
2023-05-10T15:22:52.773Z,95136.88
2023-05-10T15:25:42.645Z,95135.19
2023-05-10T15:28:15.787Z,95128.31
2023-05-10T15:31:03.662Z,95129.94
2023-05-10T15:33:43.653Z,95116.88
2023-05-10T15:36:37.658Z,95123.00
2023-05-10T15:39:24.678Z,95114.53
2023-05-10T15:41:58.827Z,95120.47
2023-05-10T15:44:45.667Z,95128.31
2023-05-10T15:47:18.816Z,95129.50
2023-05-10T15:50:05.678Z,95129.56
2023-05-10T15:52:38.743Z,95125.56
2023-05-10T15:55:26.667Z,95119.84
2023-05-10T15:58:06.670Z,95124.28
2023-05-10T16:01:00.771Z,95125.38
2023-05-10T16:03:47.701Z,95127.34
2023-05-10T16:06:27.811Z,95117.84
2023-05-10T16:09:14.757Z,95124.66
2023-05-10T16:11:49.836Z,95127.44
2023-05-10T16:14:38.705Z,95130.97
2023-05-10T16:17:18.812Z,95123.13
2023-05-10T16:20:05.745Z,95121.44
2023-05-10T16:22:38.860Z,95131.13
2023-05-10T16:25:28.780Z,95127.09
2023-05-10T16:28:08.749Z,95134.00
2023-05-10T16:31:02.919Z,95124.06
2023-05-10T16:33:49.724Z,95126.88
2023-05-10T16:36:22.930Z,95123.63
2023-05-10T16:39:10.689Z,95130.19
2023-05-10T16:41:43.849Z,95125.09
2023-05-10T16:44:30.705Z,95123.44
2023-05-10T16:47:03.874Z,95127.84
2023-05-10T16:49:50.728Z,95124.63
2023-05-10T16:52:23.933Z,95129.00
2023-05-10T16:55:10.705Z,95127.44
2023-05-10T16:57:43.868Z,95130.13
2023-05-10T17:00:30.755Z,95137.16
2023-05-10T17:03:10.776Z,95136.41
2023-05-10T17:06:05.740Z,95138.31
2023-05-10T17:08:59.719Z,95136.69
2023-05-10T17:11:46.915Z,95146.31
2023-05-10T17:14:19.879Z,95146.47
2023-05-10T17:17:13.705Z,95144.09
2023-05-10T17:19:53.723Z,95150.25
2023-05-10T17:22:47.777Z,95141.91
2023-05-10T17:25:41.786Z,95147.25
2023-05-10T17:28:35.775Z,95149.09
2023-05-10T17:31:22.805Z,95148.50
2023-05-10T17:33:55.904Z,95148.63
2023-05-10T17:36:42.818Z,95154.09
2023-05-10T17:39:18.403Z,95155.31
2023-05-10T17:42:04.742Z,95156.53
2023-05-10T17:44:37.859Z,95153.47
2023-05-10T17:47:25.876Z,95158.09
2023-05-10T17:50:06.724Z,95157.56
2023-05-10T17:52:53.746Z,95167.31
2023-05-10T17:55:33.719Z,95169.28
2023-05-10T17:58:20.745Z,95168.72
2023-05-10T18:01:00.803Z,95168.16
2023-05-10T18:03:55.724Z,95173.63
2023-05-10T18:06:43.789Z,95173.06
2023-05-10T18:09:17.996Z,95173.34
2023-05-10T18:12:04.744Z,95181.25
2023-05-10T18:14:41.128Z,95184.16
2023-05-10T18:17:28.764Z,95179.28
2023-05-10T18:20:02.293Z,95186.47
2023-05-10T18:22:48.805Z,95191.91
2023-05-10T18:25:21.862Z,95198.03
2023-05-10T18:28:08.749Z,95199.84
2023-05-10T18:30:41.854Z,95200.09
2023-05-10T18:33:28.831Z,95203.69
2023-05-10T18:36:02.434Z,95204.84
2023-05-10T18:38:48.771Z,95211.09
2023-05-10T18:41:28.852Z,95209.47
2023-05-10T18:44:22.761Z,95214.75
2023-05-10T18:47:16.756Z,95210.56
2023-05-10T18:50:04.757Z,95214.19
2023-05-10T18:52:37.996Z,95213.53
2023-05-10T18:55:25.804Z,95216.19
2023-05-10T18:58:05.787Z,95217.13
2023-05-10T19:00:52.741Z,95218.94
2023-05-10T19:03:27.105Z,95214.88
2023-05-10T19:06:13.777Z,95223.56
2023-05-10T19:08:46.887Z,95223.66
2023-05-10T19:11:33.771Z,95226.34
2023-05-10T19:14:07.967Z,95223.00
2023-05-10T19:16:54.928Z,95229.09
2023-05-10T19:19:37.441Z,95223.22
2023-05-10T19:25:27.862Z,95232.91
2023-05-10T19:28:14.762Z,95228.72
2023-05-10T19:30:55.857Z,95233.06
2023-05-10T19:33:49.725Z,95228.94
2023-05-10T19:36:37.851Z,95236.72
2023-05-10T19:39:10.901Z,95234.28
2023-05-10T19:41:57.805Z,95235.25
2023-05-10T19:44:34.138Z,95237.03
2023-05-10T19:47:20.764Z,95237.97
2023-05-10T19:49:55.892Z,95235.47
2023-05-10T19:52:42.785Z,95234.66
2023-05-10T19:55:22.816Z,95232.97
2023-05-10T19:58:11.811Z,95241.56
2023-05-10T20:00:51.811Z,95234.84
2023-05-10T20:03:45.838Z,95236.59
2023-05-10T20:06:32.810Z,95229.84
2023-05-10T20:09:05.962Z,95240.09
2023-05-10T20:11:52.793Z,95238.47
2023-05-10T20:14:32.817Z,95241.97
2023-05-10T20:17:26.852Z,95242.88
2023-05-10T20:20:16.084Z,95236.09
2023-05-10T20:22:50.992Z,95242.97
2023-05-10T20:25:44.819Z,95239.63
2023-05-10T20:28:32.811Z,95253.28
2023-05-10T20:31:06.038Z,95248.22
2023-05-10T20:33:52.880Z,95251.69
2023-05-10T20:36:33.813Z,95248.31
2023-05-10T20:39:27.794Z,95254.34
2023-05-10T20:42:14.803Z,95252.66
2023-05-10T20:44:54.818Z,95251.81
2023-05-10T20:47:49.880Z,95259.50
2023-05-10T20:50:44.804Z,95262.94
2023-05-10T20:53:31.811Z,95257.03
2023-05-10T20:56:11.805Z,95266.44
2023-05-10T20:59:05.821Z,95269.00
2023-05-10T21:01:59.992Z,95263.94
2023-05-10T21:04:56.333Z,95268.22
2023-05-10T21:07:51.840Z,95265.72
2023-05-10T21:10:45.808Z,95271.69
2023-05-10T21:13:32.853Z,95269.16
2023-05-10T21:16:05.937Z,95269.16
2023-05-10T21:18:52.862Z,95264.09
2023-05-10T21:21:25.988Z,95268.38
2023-05-10T21:24:13.816Z,95265.84
2023-05-10T21:27:07.833Z,95269.25
2023-05-10T21:29:54.836Z,95262.47
2023-05-10T21:32:28.016Z,95267.56
2023-05-10T21:35:14.832Z,95265.03
2023-05-10T21:37:47.984Z,95263.34
2023-05-10T21:40:35.833Z,95265.03
2023-05-10T21:43:09.642Z,95269.28
2023-05-10T21:45:56.902Z,95272.72
2023-05-10T21:48:29.980Z,95271.03
2023-05-10T21:51:16.843Z,95271.88
2023-05-10T21:53:56.839Z,95271.84
2023-05-10T21:56:43.827Z,95273.56
2023-05-10T21:59:18.124Z,95271.03
2023-05-10T22:02:04.887Z,95260.03
2023-05-10T22:04:44.833Z,95271.88
2023-05-10T22:07:31.837Z,95274.44
2023-05-10T22:10:11.846Z,95273.56
2023-05-10T22:12:58.849Z,95275.28
2023-05-10T22:15:39.827Z,95272.72
2023-05-10T22:18:33.885Z,95284.63
2023-05-10T22:21:27.867Z,95272.75
2023-05-10T22:24:21.866Z,95277.84
2023-05-10T22:27:15.840Z,95282.91
2023-05-10T22:30:02.854Z,95286.31
2023-05-10T22:32:38.167Z,95281.19
2023-05-10T22:35:24.851Z,95276.13
2023-05-10T22:37:58.006Z,95282.88
2023-05-10T22:40:45.860Z,95276.97
2023-05-10T22:43:18.953Z,95282.03
2023-05-10T22:46:05.915Z,95283.72
2023-05-10T22:48:41.506Z,95287.94
2023-05-10T22:51:27.858Z,95289.63
2023-05-10T22:54:00.999Z,95287.94
2023-05-10T22:56:47.976Z,95288.78
2023-05-10T22:59:21.045Z,95292.97
2023-05-10T23:02:07.948Z,95291.25
2023-05-10T23:04:41.067Z,95298.91
2023-05-10T23:07:30.846Z,95293.81
2023-05-10T23:10:10.885Z,95297.16
2023-05-10T23:12:57.853Z,95298.00
2023-05-10T23:15:33.118Z,95295.44
2023-05-10T23:18:19.909Z,95297.09
2023-05-10T23:20:53.202Z,95300.50
2023-05-10T23:23:40.900Z,95292.84
2023-05-10T23:26:20.884Z,95297.09
2023-05-10T23:29:14.875Z,95296.19
2023-05-10T23:32:08.956Z,95297.91
2023-05-10T23:34:55.853Z,95298.72
2023-05-10T23:37:35.837Z,95297.00
2023-05-10T23:40:22.883Z,95302.06
2023-05-10T23:43:02.887Z,95300.38
2023-05-10T23:45:49.902Z,95300.38
2023-05-10T23:48:29.895Z,95302.03
2023-05-10T23:51:23.913Z,95299.50
2023-05-10T23:54:10.888Z,95297.81
2023-05-10T23:56:46.671Z,95300.31
2023-05-10T23:59:32.891Z,95313.00
